createdAt,value
2019-05-23T00:02:38.715Z,99.90
2019-05-23T00:07:34.871Z,99.90
2019-05-23T00:12:43.276Z,99.90
2019-05-23T00:17:37.600Z,99.90
2019-05-23T00:22:33.774Z,99.90
2019-05-23T00:27:29.373Z,99.90
2019-05-23T00:32:34.994Z,99.90
2019-05-23T00:37:32.116Z,99.90
2019-05-23T00:42:26.362Z,99.90
2019-05-23T00:47:22.746Z,99.90
2019-05-23T00:57:13.264Z,99.90
2019-05-23T01:02:10.619Z,99.90
2019-05-23T01:07:07.633Z,99.90
2019-05-23T01:12:02.959Z,99.90
2019-05-23T01:16:57.605Z,99.90
2019-05-23T01:21:59.411Z,99.90
2019-05-23T01:26:55.277Z,99.90
2019-05-23T01:36:46.683Z,99.90
2019-05-23T01:41:42.097Z,99.90
2019-05-23T01:46:38.543Z,99.90
2019-05-23T01:51:33.627Z,99.90
2019-05-23T01:56:28.430Z,99.90
2019-05-23T02:01:22.275Z,99.90
2019-05-23T02:06:17.152Z,99.90
2019-05-23T02:11:13.033Z,99.90
2019-05-23T02:16:08.124Z,99.90
2019-05-23T02:21:02.913Z,99.90
2019-05-23T02:25:58.234Z,99.90
2019-05-23T02:30:52.702Z,99.90
2019-05-23T02:35:47.046Z,99.90
2019-05-23T02:40:46.623Z,99.90
2019-05-23T02:45:47.726Z,99.90
2019-05-23T02:51:00.128Z,99.90
2019-05-23T02:55:58.633Z,99.90
2019-05-23T03:01:14.330Z,99.90
2019-05-23T03:06:12.880Z,99.90
2019-05-23T03:11:17.983Z,99.90
2019-05-23T03:16:15.404Z,99.90
2019-05-23T03:21:09.917Z,99.90
2019-05-23T03:26:06.786Z,99.90
2019-05-23T03:31:28.852Z,99.90
2019-05-23T03:36:08.432Z,99.90
2019-05-23T03:41:04.131Z,99.90
2019-05-23T03:46:02.932Z,99.90
2019-05-23T03:50:58.468Z,99.90
2019-05-23T03:55:53.845Z,99.90
2019-05-23T04:00:51.848Z,99.90
2019-05-23T04:05:46.287Z,99.90
2019-05-23T04:10:40.835Z,99.90
2019-05-23T04:15:35.749Z,99.90
2019-05-23T04:20:31.830Z,99.90
2019-05-23T04:25:25.996Z,99.90
2019-05-23T04:30:20.990Z,99.90
2019-05-23T04:35:15.277Z,99.90
2019-05-23T04:40:13.433Z,99.90
2019-05-23T04:45:08.039Z,99.90
2019-05-23T04:50:03.188Z,99.90
2019-05-23T04:54:58.836Z,99.90
2019-05-23T04:59:54.336Z,99.90
2019-05-23T05:04:50.222Z,99.90
2019-05-23T05:09:45.479Z,99.90
2019-05-23T05:14:39.729Z,99.90
2019-05-23T05:19:34.399Z,99.90
2019-05-23T05:24:28.898Z,99.90
2019-05-23T05:34:19.020Z,99.90
2019-05-23T05:39:14.087Z,99.90
2019-05-23T05:44:11.666Z,99.90
2019-05-23T05:49:06.302Z,99.90
2019-05-23T05:54:01.891Z,99.90
2019-05-23T05:58:57.222Z,99.90
2019-05-23T06:03:52.283Z,99.90
2019-05-23T06:08:47.645Z,99.90
2019-05-23T06:13:42.294Z,99.90
2019-05-23T06:18:36.889Z,99.90
2019-05-23T06:23:33.889Z,99.90
2019-05-23T06:28:29.322Z,99.90
2019-05-23T06:33:25.375Z,99.90
2019-05-23T06:38:19.824Z,99.90
2019-05-23T06:43:14.362Z,99.90
2019-05-23T06:48:09.753Z,99.90
2019-05-23T06:53:07.338Z,97.30
2019-05-23T06:58:07.569Z,67.10
2019-05-23T07:03:05.129Z,55.20
2019-05-23T07:07:59.035Z,54.70
2019-05-23T07:12:53.747Z,52.90
2019-05-23T07:17:47.475Z,48.90
2019-05-23T07:22:44.086Z,50.20
2019-05-23T07:27:39.172Z,46.70
2019-05-23T07:32:36.576Z,45.30
2019-05-23T07:37:30.433Z,42.80
2019-05-23T07:42:25.216Z,40.70
2019-05-23T07:52:19.658Z,41.70
2019-05-23T07:57:19.636Z,37.50
2019-05-23T08:02:25.534Z,34.60
2019-05-23T08:07:19.446Z,32.50
2019-05-23T08:12:14.139Z,32.60
2019-05-23T08:17:09.892Z,30.40
2019-05-23T08:22:04.485Z,29.00
2019-05-23T08:27:02.223Z,27.70
2019-05-23T08:31:57.571Z,31.00
2019-05-23T08:36:54.008Z,31.20
2019-05-23T08:41:49.539Z,33.50
2019-05-23T08:46:44.043Z,33.10
2019-05-23T08:51:40.015Z,29.80
2019-05-23T08:56:36.340Z,28.10
2019-05-23T09:01:32.575Z,27.40
2019-05-23T09:06:29.834Z,26.00
2019-05-23T09:11:25.036Z,27.20
2019-05-23T09:16:19.160Z,28.70
2019-05-23T09:21:13.460Z,27.90
2019-05-23T09:26:08.501Z,26.90
2019-05-23T09:31:05.077Z,27.10
2019-05-23T09:36:02.718Z,26.80
2019-05-23T09:40:57.988Z,25.40
2019-05-23T09:45:52.939Z,24.70
2019-05-23T09:50:48.239Z,24.30
2019-05-23T09:55:43.870Z,23.30
2019-05-23T10:00:39.520Z,22.70
2019-05-23T10:05:43.015Z,22.40
2019-05-23T10:10:33.937Z,22.10
2019-05-23T10:15:38.864Z,23.40
2019-05-23T10:20:37.271Z,22.70
2019-05-23T10:25:33.199Z,22.40
2019-05-23T10:30:27.550Z,21.90
2019-05-23T10:35:22.116Z,21.70
2019-05-23T10:40:18.312Z,21.50
2019-05-23T10:45:14.636Z,21.30
2019-05-23T10:50:10.408Z,21.60
2019-05-23T10:55:06.762Z,22.00
2019-05-23T11:00:01.340Z,22.90
2019-05-23T11:04:57.306Z,22.20
2019-05-23T11:09:52.567Z,24.10
2019-05-23T11:14:47.421Z,27.00
2019-05-23T11:19:46.715Z,28.30
2019-05-23T11:24:42.326Z,34.40
2019-05-23T11:29:36.567Z,35.30
2019-05-23T11:34:32.053Z,38.40
2019-05-23T11:39:26.845Z,38.20
2019-05-23T11:54:10.121Z,40.60
2019-05-23T11:59:06.452Z,40.20
2019-05-23T12:04:02.459Z,40.00
2019-05-23T12:08:58.305Z,40.90
2019-05-23T12:13:52.862Z,43.10
2019-05-23T12:18:47.241Z,43.10
2019-05-23T12:23:43.200Z,43.90
2019-05-23T12:28:37.314Z,44.00
2019-05-23T12:33:33.960Z,46.80
2019-05-23T12:38:29.151Z,45.90
2019-05-23T12:43:24.878Z,43.80
2019-05-23T12:48:21.287Z,44.60
2019-05-23T12:53:21.568Z,47.50
2019-05-23T12:58:18.880Z,47.10
2019-05-23T13:03:14.676Z,45.30
2019-05-23T13:08:10.574Z,46.80
2019-05-23T13:13:06.109Z,46.00
2019-05-23T13:18:01.618Z,42.70
2019-05-23T13:22:57.738Z,46.30
2019-05-23T13:27:52.339Z,47.40
2019-05-23T13:32:47.640Z,46.60
2019-05-23T13:37:53.274Z,44.80
2019-05-23T13:42:39.745Z,45.10
2019-05-23T13:47:36.828Z,45.90
2019-05-23T13:52:31.295Z,49.00
2019-05-23T13:57:28.371Z,47.80
2019-05-23T14:02:23.164Z,51.40
2019-05-23T14:07:18.323Z,51.20
2019-05-23T14:12:21.359Z,49.10
2019-05-23T14:17:12.533Z,50.10
2019-05-23T14:22:10.159Z,48.60
2019-05-23T14:27:20.189Z,51.30
2019-05-23T14:32:22.450Z,48.50
2019-05-23T14:37:19.139Z,48.00
2019-05-23T14:42:14.845Z,48.40
2019-05-23T14:47:16.274Z,48.80
2019-05-23T14:52:30.362Z,48.20
2019-05-23T14:57:25.896Z,48.80
2019-05-23T15:02:20.780Z,49.50
2019-05-23T15:07:15.212Z,43.60
2019-05-23T15:12:09.480Z,44.20
2019-05-23T15:17:04.312Z,45.20
2019-05-23T15:21:59.337Z,43.80
2019-05-23T15:26:54.016Z,44.50
2019-05-23T15:32:01.559Z,47.40
2019-05-23T15:36:45.983Z,46.30
2019-05-23T15:41:51.289Z,45.60
2019-05-23T15:51:45.071Z,46.70
2019-05-23T15:56:44.011Z,48.20
2019-05-23T16:01:55.215Z,51.00
2019-05-23T16:06:49.988Z,49.10
2019-05-23T16:11:47.059Z,49.50
2019-05-23T16:16:41.791Z,49.10
2019-05-23T16:21:38.760Z,50.10
2019-05-23T16:26:33.583Z,49.40
2019-05-23T16:31:29.505Z,48.10
2019-05-23T16:36:23.332Z,47.80
2019-05-23T16:41:17.592Z,49.30
2019-05-23T16:46:11.892Z,49.10
2019-05-23T16:56:08.488Z,49.30
2019-05-23T17:01:24.252Z,49.20
2019-05-23T17:06:23.177Z,49.00
2019-05-23T17:11:20.370Z,48.90
2019-05-23T17:16:23.572Z,50.10
2019-05-23T17:21:20.785Z,48.70
2019-05-23T17:26:31.805Z,46.90
2019-05-23T17:31:29.963Z,49.20
2019-05-23T17:36:25.342Z,47.40
2019-05-23T17:41:20.424Z,47.90
2019-05-23T17:46:15.200Z,49.60
2019-05-23T17:51:08.997Z,50.60
2019-05-23T17:56:03.520Z,49.50
2019-05-23T18:00:58.402Z,51.40
2019-05-23T18:05:52.796Z,54.60
2019-05-23T18:10:47.185Z,52.90
2019-05-23T18:15:41.715Z,54.20
2019-05-23T18:20:37.907Z,55.70
2019-05-23T18:25:32.741Z,56.50
2019-05-23T18:30:45.993Z,57.80
2019-05-23T18:35:42.279Z,58.70
2019-05-23T18:40:36.870Z,60.70
2019-05-23T18:45:32.684Z,64.70
2019-05-23T18:50:28.328Z,64.50
2019-05-23T18:55:22.661Z,64.60
2019-05-23T19:00:19.508Z,66.40
2019-05-23T19:05:13.580Z,67.70
2019-05-23T19:10:09.241Z,67.50
2019-05-23T19:15:03.321Z,70.90
2019-05-23T19:19:57.556Z,71.30
2019-05-23T19:24:51.783Z,72.70
2019-05-23T19:29:46.272Z,73.90
2019-05-23T19:34:40.267Z,78.90
2019-05-23T19:44:32.167Z,99.30
2019-05-23T19:49:27.682Z,99.20
2019-05-23T19:54:22.188Z,99.90
2019-05-23T19:59:16.147Z,99.90
2019-05-23T20:04:12.513Z,99.90
2019-05-23T20:09:10.707Z,99.90
2019-05-23T20:14:04.865Z,99.90
2019-05-23T20:19:00.195Z,99.90
2019-05-23T20:23:54.441Z,99.90
2019-05-23T20:28:48.566Z,99.90
2019-05-23T20:33:42.514Z,99.90
2019-05-23T20:38:37.226Z,99.90
2019-05-23T20:48:26.465Z,99.90
2019-05-23T20:53:20.712Z,99.90
2019-05-23T20:58:17.249Z,99.90
2019-05-23T21:03:12.995Z,99.90
2019-05-23T21:17:53.580Z,99.90
2019-05-23T21:22:47.340Z,99.90
2019-05-23T21:27:41.319Z,99.90
2019-05-23T21:32:36.657Z,99.90
2019-05-23T21:42:23.529Z,99.90
2019-05-23T21:47:17.403Z,99.90
2019-05-23T21:52:11.834Z,99.90
2019-05-23T21:57:07.221Z,99.90
2019-05-23T22:02:09.327Z,99.90
2019-05-23T22:07:05.077Z,99.90
2019-05-23T22:11:59.918Z,99.90
2019-05-23T22:16:55.062Z,99.90
2019-05-23T22:21:49.799Z,99.90
2019-05-23T22:26:47.374Z,99.90
2019-05-23T22:31:43.468Z,99.90
2019-05-23T22:36:39.181Z,99.90
2019-05-23T22:41:33.688Z,99.90
2019-05-23T22:46:29.060Z,99.90
2019-05-23T22:51:23.784Z,99.90
2019-05-23T22:56:17.771Z,99.90
2019-05-23T23:01:12.283Z,99.90
2019-05-23T23:06:07.105Z,99.90
2019-05-23T23:11:01.653Z,99.90
2019-05-23T23:15:55.492Z,99.90
2019-05-23T23:20:52.316Z,99.90
2019-05-23T23:25:46.668Z,99.90
2019-05-23T23:30:42.863Z,99.90
2019-05-23T23:35:36.916Z,99.90
2019-05-23T23:40:30.906Z,99.90
2019-05-23T23:45:44.619Z,99.90
2019-05-23T23:51:00.072Z,99.90
2019-05-23T23:56:12.051Z,99.90
